sensor_id;sensor_type;location;lat;lon;timestamp;pressure;altitude;pressure_sealevel;temperature;humidity
68855;BME280;69984;-43.570;172.580;2023-10-13T00:01:49;100606.84;;;21.52;45.59
68855;BME280;69984;-43.570;172.580;2023-10-13T00:04:19;100592.13;;;21.68;44.67
68855;BME280;69984;-43.570;172.580;2023-10-13T00:06:54;100606.34;;;21.12;44.90
68855;BME280;69984;-43.570;172.580;2023-10-13T00:09:23;100591.56;;;21.10;44.10
68855;BME280;69984;-43.570;172.580;2023-10-13T00:12:09;100602.47;;;21.33;44.17
68855;BME280;69984;-43.570;172.580;2023-10-13T00:14:40;100602.72;;;21.74;43.74
68855;BME280;69984;-43.570;172.580;2023-10-13T00:17:08;100599.38;;;22.04;42.83
68855;BME280;69984;-43.570;172.580;2023-10-13T00:19:38;100590.16;;;22.36;42.89
68855;BME280;69984;-43.570;172.580;2023-10-13T00:22:18;100576.81;;;22.36;41.42
68855;BME280;69984;-43.570;172.580;2023-10-13T00:24:46;100576.31;;;22.87;41.83
68855;BME280;69984;-43.570;172.580;2023-10-13T00:27:18;100578.25;;;23.10;42.24
68855;BME280;69984;-43.570;172.580;2023-10-13T00:30:11;100572.44;;;23.13;42.51
68855;BME280;69984;-43.570;172.580;2023-10-13T00:32:44;100568.13;;;23.23;41.62
68855;BME280;69984;-43.570;172.580;2023-10-13T00:35:12;100578.44;;;23.50;43.48
68855;BME280;69984;-43.570;172.580;2023-10-13T00:38:00;100562.75;;;22.88;42.01
68855;BME280;69984;-43.570;172.580;2023-10-13T00:40:31;100561.13;;;22.99;43.13
68855;BME280;69984;-43.570;172.580;2023-10-13T00:42:59;100567.78;;;22.67;41.63
68855;BME280;69984;-43.570;172.580;2023-10-13T00:45:56;100559.31;;;22.70;44.07
68855;BME280;69984;-43.570;172.580;2023-10-13T00:48:28;100571.84;;;23.11;42.48
68855;BME280;69984;-43.570;172.580;2023-10-13T00:51:06;100565.44;;;23.12;43.33
68855;BME280;69984;-43.570;172.580;2023-10-13T00:53:37;100565.94;;;22.67;44.01
68855;BME280;69984;-43.570;172.580;2023-10-13T00:56:10;100561.97;;;23.23;43.50
68855;BME280;69984;-43.570;172.580;2023-10-13T00:58:48;100564.06;;;23.21;43.62
68855;BME280;69984;-43.570;172.580;2023-10-13T01:03:50;100574.19;;;23.07;43.22
68855;BME280;69984;-43.570;172.580;2023-10-13T01:06:47;100559.63;;;23.03;44.15
68855;BME280;69984;-43.570;172.580;2023-10-13T01:09:15;100559.53;;;23.10;43.39
68855;BME280;69984;-43.570;172.580;2023-10-13T01:11:49;100547.88;;;22.93;42.78
68855;BME280;69984;-43.570;172.580;2023-10-13T01:14:22;100542.03;;;22.84;43.90
68855;BME280;69984;-43.570;172.580;2023-10-13T01:16:53;100538.53;;;22.72;43.86
68855;BME280;69984;-43.570;172.580;2023-10-13T01:19:21;100541.66;;;22.80;45.51
68855;BME280;69984;-43.570;172.580;2023-10-13T01:21:53;100541.72;;;22.92;44.31
68855;BME280;69984;-43.570;172.580;2023-10-13T01:24:29;100547.63;;;22.94;44.41
68855;BME280;69984;-43.570;172.580;2023-10-13T01:27:06;100536.06;;;23.35;41.60
68855;BME280;69984;-43.570;172.580;2023-10-13T01:29:51;100537.91;;;23.81;37.80
68855;BME280;69984;-43.570;172.580;2023-10-13T01:32:25;100521.69;;;23.99;38.34
68855;BME280;69984;-43.570;172.580;2023-10-13T01:34:52;100515.91;;;23.79;39.00
68855;BME280;69984;-43.570;172.580;2023-10-13T01:37:22;100504.41;;;23.78;39.81
68855;BME280;69984;-43.570;172.580;2023-10-13T01:39:49;100476.81;;;24.18;39.22
68855;BME280;69984;-43.570;172.580;2023-10-13T01:42:17;100484.31;;;23.53;38.97
68855;BME280;69984;-43.570;172.580;2023-10-13T01:44:48;100478.13;;;24.04;39.50
68855;BME280;69984;-43.570;172.580;2023-10-13T01:47:15;100482.44;;;24.16;37.15
68855;BME280;69984;-43.570;172.580;2023-10-13T01:49:43;100489.97;;;23.79;34.48
68855;BME280;69984;-43.570;172.580;2023-10-13T01:52:16;100478.13;;;24.15;37.24
68855;BME280;69984;-43.570;172.580;2023-10-13T01:54:47;100495.66;;;23.83;38.39
68855;BME280;69984;-43.570;172.580;2023-10-13T01:57:16;100495.00;;;24.16;37.70
68855;BME280;69984;-43.570;172.580;2023-10-13T01:59:47;100495.84;;;23.53;40.86
68855;BME280;69984;-43.570;172.580;2023-10-13T02:02:15;100489.53;;;23.13;39.86
68855;BME280;69984;-43.570;172.580;2023-10-13T02:04:55;100480.00;;;23.52;38.95
68855;BME280;69984;-43.570;172.580;2023-10-13T02:07:27;100475.34;;;23.35;39.67
68855;BME280;69984;-43.570;172.580;2023-10-13T02:09:59;100463.38;;;23.38;35.92
68855;BME280;69984;-43.570;172.580;2023-10-13T02:12:26;100470.59;;;23.49;36.45
68855;BME280;69984;-43.570;172.580;2023-10-13T02:15:12;100458.63;;;23.17;37.10
68855;BME280;69984;-43.570;172.580;2023-10-13T02:17:53;100455.13;;;22.81;34.46
68855;BME280;69984;-43.570;172.580;2023-10-13T02:20:21;100443.66;;;22.51;34.90
68855;BME280;69984;-43.570;172.580;2023-10-13T02:22:52;100436.22;;;22.53;36.19
68855;BME280;69984;-43.570;172.580;2023-10-13T02:25:19;100440.28;;;22.44;33.70
68855;BME280;69984;-43.570;172.580;2023-10-13T02:28:04;100426.19;;;22.25;35.27
68855;BME280;69984;-43.570;172.580;2023-10-13T02:30:40;100418.72;;;22.16;33.89
68855;BME280;69984;-43.570;172.580;2023-10-13T02:33:14;100419.66;;;22.21;35.22
68855;BME280;69984;-43.570;172.580;2023-10-13T02:35:48;100416.56;;;22.36;35.54
68855;BME280;69984;-43.570;172.580;2023-10-13T02:38:22;100414.72;;;22.07;35.34
68855;BME280;69984;-43.570;172.580;2023-10-13T02:41:15;100411.94;;;22.43;34.70
68855;BME280;69984;-43.570;172.580;2023-10-13T02:43:53;100427.75;;;22.45;33.76
68855;BME280;69984;-43.570;172.580;2023-10-13T02:46:21;100421.97;;;22.18;33.25
68855;BME280;69984;-43.570;172.580;2023-10-13T02:48:55;100418.31;;;22.42;33.98
68855;BME280;69984;-43.570;172.580;2023-10-13T02:51:24;100403.09;;;22.42;34.91
68855;BME280;69984;-43.570;172.580;2023-10-13T02:54:04;100409.06;;;22.45;33.17
68855;BME280;69984;-43.570;172.580;2023-10-13T02:56:39;100390.72;;;21.88;33.65
68855;BME280;69984;-43.570;172.580;2023-10-13T02:59:26;100390.34;;;21.73;34.87
68855;BME280;69984;-43.570;172.580;2023-10-13T03:02:07;100384.50;;;21.47;35.12
68855;BME280;69984;-43.570;172.580;2023-10-13T03:04:56;100371.78;;;21.30;35.64
68855;BME280;69984;-43.570;172.580;2023-10-13T03:07:26;100349.03;;;21.10;35.85
68855;BME280;69984;-43.570;172.580;2023-10-13T03:09:58;100364.78;;;21.18;36.38
68855;BME280;69984;-43.570;172.580;2023-10-13T03:12:39;100356.38;;;21.32;37.11
68855;BME280;69984;-43.570;172.580;2023-10-13T03:15:08;100350.16;;;21.38;35.58
68855;BME280;69984;-43.570;172.580;2023-10-13T03:17:41;100344.44;;;21.53;36.50
68855;BME280;69984;-43.570;172.580;2023-10-13T03:20:12;100341.03;;;21.46;36.58
68855;BME280;69984;-43.570;172.580;2023-10-13T03:22:41;100321.88;;;21.37;35.50
68855;BME280;69984;-43.570;172.580;2023-10-13T03:25:12;100308.34;;;21.21;34.78
68855;BME280;69984;-43.570;172.580;2023-10-13T03:27:48;100313.66;;;21.03;35.32
68855;BME280;69984;-43.570;172.580;2023-10-13T03:30:27;100284.41;;;20.96;36.45
68855;BME280;69984;-43.570;172.580;2023-10-13T03:33:24;100284.34;;;21.03;36.67
68855;BME280;69984;-43.570;172.580;2023-10-13T03:35:55;100277.59;;;21.00;35.79
68855;BME280;69984;-43.570;172.580;2023-10-13T03:38:31;100279.59;;;20.86;35.41
68855;BME280;69984;-43.570;172.580;2023-10-13T03:41:02;100295.72;;;20.91;35.83
68855;BME280;69984;-43.570;172.580;2023-10-13T03:43:45;100303.31;;;21.13;36.38
68855;BME280;69984;-43.570;172.580;2023-10-13T03:46:31;100323.59;;;21.14;35.64
68855;BME280;69984;-43.570;172.580;2023-10-13T03:48:59;100313.50;;;20.98;36.33
68855;BME280;69984;-43.570;172.580;2023-10-13T03:51:27;100313.44;;;20.86;36.71
68855;BME280;69984;-43.570;172.580;2023-10-13T03:53:57;100302.53;;;20.87;36.91
68855;BME280;69984;-43.570;172.580;2023-10-13T03:56:26;100285.44;;;20.77;36.56
68855;BME280;69984;-43.570;172.580;2023-10-13T03:59:05;100321.91;;;20.76;36.97
68855;BME280;69984;-43.570;172.580;2023-10-13T04:01:53;100316.81;;;20.75;36.48
68855;BME280;69984;-43.570;172.580;2023-10-13T04:04:26;100323.44;;;20.66;37.88
68855;BME280;69984;-43.570;172.580;2023-10-13T04:07:15;100321.09;;;20.58;37.96
68855;BME280;69984;-43.570;172.580;2023-10-13T04:10:01;100312.19;;;20.46;38.22
68855;BME280;69984;-43.570;172.580;2023-10-13T04:13:04;100313.56;;;20.55;38.36
68855;BME280;69984;-43.570;172.580;2023-10-13T04:15:54;100298.44;;;20.49;39.09
68855;BME280;69984;-43.570;172.580;2023-10-13T04:18:39;100293.81;;;20.37;38.23
68855;BME280;69984;-43.570;172.580;2023-10-13T04:21:18;100295.47;;;20.38;38.45
68855;BME280;69984;-43.570;172.580;2023-10-13T04:24:03;100293.41;;;20.40;38.38
68855;BME280;69984;-43.570;172.580;2023-10-13T04:27:00;100282.00;;;20.33;38.96
68855;BME280;69984;-43.570;172.580;2023-10-13T04:29:39;100265.72;;;20.17;40.31
68855;BME280;69984;-43.570;172.580;2023-10-13T04:32:13;100262.84;;;20.18;39.86
68855;BME280;69984;-43.570;172.580;2023-10-13T04:34:41;100262.31;;;20.10;40.13
68855;BME280;69984;-43.570;172.580;2023-10-13T04:37:17;100263.38;;;20.02;40.42
68855;BME280;69984;-43.570;172.580;2023-10-13T04:39:59;100263.06;;;20.17;39.55
68855;BME280;69984;-43.570;172.580;2023-10-13T04:42:36;100250.06;;;20.09;40.08
68855;BME280;69984;-43.570;172.580;2023-10-13T04:45:26;100250.31;;;20.01;40.09
68855;BME280;69984;-43.570;172.580;2023-10-13T04:48:00;100245.44;;;19.98;39.88
68855;BME280;69984;-43.570;172.580;2023-10-13T04:51:01;100236.31;;;19.87;39.13
68855;BME280;69984;-43.570;172.580;2023-10-13T04:54:06;100239.03;;;20.05;39.25
68855;BME280;69984;-43.570;172.580;2023-10-13T04:56:52;100242.91;;;20.03;39.72
68855;BME280;69984;-43.570;172.580;2023-10-13T04:59:26;100232.94;;;20.23;38.84
68855;BME280;69984;-43.570;172.580;2023-10-13T05:02:03;100234.94;;;20.27;38.58
68855;BME280;69984;-43.570;172.580;2023-10-13T05:04:49;100241.34;;;20.81;38.29
68855;BME280;69984;-43.570;172.580;2023-10-13T05:07:32;100242.25;;;20.75;38.12
68855;BME280;69984;-43.570;172.580;2023-10-13T05:10:17;100237.50;;;20.59;37.79
68855;BME280;69984;-43.570;172.580;2023-10-13T05:13:03;100233.03;;;20.34;38.10
68855;BME280;69984;-43.570;172.580;2023-10-13T05:15:49;100235.97;;;20.26;38.52
68855;BME280;69984;-43.570;172.580;2023-10-13T05:18:35;100244.16;;;20.25;38.82
68855;BME280;69984;-43.570;172.580;2023-10-13T05:21:20;100242.06;;;20.33;37.84
68855;BME280;69984;-43.570;172.580;2023-10-13T05:24:06;100249.84;;;20.53;37.85
68855;BME280;69984;-43.570;172.580;2023-10-13T05:26:52;100241.69;;;20.48;37.51
68855;BME280;69984;-43.570;172.580;2023-10-13T05:29:41;100245.56;;;20.70;37.02
68855;BME280;69984;-43.570;172.580;2023-10-13T05:32:26;100233.50;;;20.50;37.26
68855;BME280;69984;-43.570;172.580;2023-10-13T05:35:20;100230.97;;;20.36;38.17
68855;BME280;69984;-43.570;172.580;2023-10-13T05:38:06;100244.28;;;20.36;38.11
68855;BME280;69984;-43.570;172.580;2023-10-13T05:41:02;100247.59;;;20.07;37.93
68855;BME280;69984;-43.570;172.580;2023-10-13T05:43:47;100235.50;;;20.11;37.22
68855;BME280;69984;-43.570;172.580;2023-10-13T05:46:33;100237.00;;;20.01;37.97
68855;BME280;69984;-43.570;172.580;2023-10-13T05:49:07;100236.41;;;19.99;38.31
68855;BME280;69984;-43.570;172.580;2023-10-13T05:52:06;100240.56;;;19.88;38.05
68855;BME280;69984;-43.570;172.580;2023-10-13T05:54:47;100235.38;;;20.00;37.80
68855;BME280;69984;-43.570;172.580;2023-10-13T05:57:33;100222.31;;;19.73;38.50
68855;BME280;69984;-43.570;172.580;2023-10-13T06:00:18;100242.00;;;19.66;38.10
68855;BME280;69984;-43.570;172.580;2023-10-13T06:03:03;100249.84;;;19.54;37.72
68855;BME280;69984;-43.570;172.580;2023-10-13T06:05:48;100237.31;;;19.61;37.79
68855;BME280;69984;-43.570;172.580;2023-10-13T06:08:33;100232.91;;;19.49;38.45
68855;BME280;69984;-43.570;172.580;2023-10-13T06:11:18;100234.16;;;19.39;38.77
68855;BME280;69984;-43.570;172.580;2023-10-13T06:14:03;100233.38;;;19.32;38.29
68855;BME280;69984;-43.570;172.580;2023-10-13T06:16:48;100211.13;;;19.27;38.26
68855;BME280;69984;-43.570;172.580;2023-10-13T06:19:33;100227.84;;;19.34;38.28
68855;BME280;69984;-43.570;172.580;2023-10-13T06:22:18;100218.88;;;19.28;38.44
68855;BME280;69984;-43.570;172.580;2023-10-13T06:25:03;100226.44;;;19.31;37.62
68855;BME280;69984;-43.570;172.580;2023-10-13T06:27:49;100235.63;;;19.29;37.80
68855;BME280;69984;-43.570;172.580;2023-10-13T06:30:34;100236.03;;;19.32;38.19
68855;BME280;69984;-43.570;172.580;2023-10-13T06:33:01;100240.78;;;19.24;38.14
68855;BME280;69984;-43.570;172.580;2023-10-13T06:35:30;100236.44;;;19.29;38.65
68855;BME280;69984;-43.570;172.580;2023-10-13T06:37:57;100240.03;;;19.55;37.48
68855;BME280;69984;-43.570;172.580;2023-10-13T06:40:26;100252.09;;;19.82;36.80
68855;BME280;69984;-43.570;172.580;2023-10-13T06:43:00;100259.44;;;19.55;36.47
68855;BME280;69984;-43.570;172.580;2023-10-13T06:45:43;100251.41;;;19.24;37.87
68855;BME280;69984;-43.570;172.580;2023-10-13T06:48:24;100255.00;;;18.98;38.36
68855;BME280;69984;-43.570;172.580;2023-10-13T06:50:52;100256.47;;;18.87;39.41
68855;BME280;69984;-43.570;172.580;2023-10-13T06:53:22;100263.84;;;18.85;38.79
68855;BME280;69984;-43.570;172.580;2023-10-13T06:55:50;100273.06;;;18.70;39.04
68855;BME280;69984;-43.570;172.580;2023-10-13T06:58:19;100254.69;;;18.68;39.79
68855;BME280;69984;-43.570;172.580;2023-10-13T07:00:50;100255.75;;;18.61;39.45
68855;BME280;69984;-43.570;172.580;2023-10-13T07:03:24;100257.78;;;18.52;39.17
68855;BME280;69984;-43.570;172.580;2023-10-13T07:05:52;100253.91;;;18.41;39.47
68855;BME280;69984;-43.570;172.580;2023-10-13T07:08:20;100254.94;;;18.34;39.59
68855;BME280;69984;-43.570;172.580;2023-10-13T07:10:56;100268.00;;;18.42;38.82
68855;BME280;69984;-43.570;172.580;2023-10-13T07:13:40;100262.09;;;18.40;38.66
68855;BME280;69984;-43.570;172.580;2023-10-13T07:16:14;100265.53;;;18.40;38.17
68855;BME280;69984;-43.570;172.580;2023-10-13T07:18:42;100273.72;;;18.39;38.68
68855;BME280;69984;-43.570;172.580;2023-10-13T07:21:16;100286.38;;;18.43;37.98
68855;BME280;69984;-43.570;172.580;2023-10-13T07:23:50;100291.28;;;18.53;37.80
68855;BME280;69984;-43.570;172.580;2023-10-13T07:26:27;100318.22;;;18.57;38.69
68855;BME280;69984;-43.570;172.580;2023-10-13T07:28:55;100338.63;;;18.43;38.91
68855;BME280;69984;-43.570;172.580;2023-10-13T07:31:22;100347.41;;;18.24;39.29
68855;BME280;69984;-43.570;172.580;2023-10-13T07:33:53;100316.38;;;18.31;39.74
68855;BME280;69984;-43.570;172.580;2023-10-13T07:36:31;100334.31;;;18.16;41.21
68855;BME280;69984;-43.570;172.580;2023-10-13T07:39:06;100346.38;;;18.25;41.23
68855;BME280;69984;-43.570;172.580;2023-10-13T07:41:50;100337.38;;;18.00;40.90
68855;BME280;69984;-43.570;172.580;2023-10-13T07:44:24;100324.72;;;17.95;40.67
68855;BME280;69984;-43.570;172.580;2023-10-13T07:46:55;100334.13;;;18.04;40.35
68855;BME280;69984;-43.570;172.580;2023-10-13T07:49:32;100335.53;;;17.93;40.36
68855;BME280;69984;-43.570;172.580;2023-10-13T07:52:07;100334.72;;;17.93;41.04
68855;BME280;69984;-43.570;172.580;2023-10-13T07:54:48;100331.44;;;17.84;41.76
68855;BME280;69984;-43.570;172.580;2023-10-13T07:57:22;100319.00;;;17.91;41.46
68855;BME280;69984;-43.570;172.580;2023-10-13T08:00:12;100302.84;;;17.73;41.83
68855;BME280;69984;-43.570;172.580;2023-10-13T08:02:59;100321.63;;;17.72;42.25
68855;BME280;69984;-43.570;172.580;2023-10-13T08:05:55;100318.16;;;17.71;42.44
68855;BME280;69984;-43.570;172.580;2023-10-13T08:08:33;100329.75;;;17.70;42.39
68855;BME280;69984;-43.570;172.580;2023-10-13T08:11:08;100345.44;;;17.59;42.94
68855;BME280;69984;-43.570;172.580;2023-10-13T08:13:44;100345.47;;;17.72;42.03
68855;BME280;69984;-43.570;172.580;2023-10-13T08:16:20;100361.81;;;17.82;41.81
68855;BME280;69984;-43.570;172.580;2023-10-13T08:18:52;100360.41;;;17.86;41.73
68855;BME280;69984;-43.570;172.580;2023-10-13T08:21:20;100361.63;;;17.83;41.38
68855;BME280;69984;-43.570;172.580;2023-10-13T08:23:52;100369.38;;;17.85;42.00
68855;BME280;69984;-43.570;172.580;2023-10-13T08:26:23;100372.19;;;17.77;41.81
68855;BME280;69984;-43.570;172.580;2023-10-13T08:28:59;100365.16;;;17.49;42.90
68855;BME280;69984;-43.570;172.580;2023-10-13T08:31:49;100375.97;;;17.55;42.90
68855;BME280;69984;-43.570;172.580;2023-10-13T08:34:36;100377.97;;;17.46;43.91
68855;BME280;69984;-43.570;172.580;2023-10-13T08:37:27;100373.22;;;17.35;45.07
68855;BME280;69984;-43.570;172.580;2023-10-13T08:39:55;100366.63;;;17.18;45.81
68855;BME280;69984;-43.570;172.580;2023-10-13T08:42:36;100376.13;;;16.99;46.18
68855;BME280;69984;-43.570;172.580;2023-10-13T08:45:23;100375.09;;;17.00;46.65
68855;BME280;69984;-43.570;172.580;2023-10-13T08:48:00;100370.16;;;16.90;46.69
68855;BME280;69984;-43.570;172.580;2023-10-13T08:50:50;100389.03;;;16.81;46.19
68855;BME280;69984;-43.570;172.580;2023-10-13T08:56:04;100377.53;;;16.67;47.09
68855;BME280;69984;-43.570;172.580;2023-10-13T08:58:35;100378.47;;;16.60;46.62
68855;BME280;69984;-43.570;172.580;2023-10-13T09:01:34;100386.84;;;16.63;46.02
68855;BME280;69984;-43.570;172.580;2023-10-13T09:04:37;100388.59;;;16.77;46.95
68855;BME280;69984;-43.570;172.580;2023-10-13T09:07:05;100388.28;;;16.66;45.48
68855;BME280;69984;-43.570;172.580;2023-10-13T09:15:11;100378.06;;;16.84;45.16
68855;BME280;69984;-43.570;172.580;2023-10-13T09:17:50;100369.72;;;16.87;45.21
68855;BME280;69984;-43.570;172.580;2023-10-13T09:20:27;100380.06;;;16.82;45.11
68855;BME280;69984;-43.570;172.580;2023-10-13T09:23:14;100381.13;;;16.87;44.82
68855;BME280;69984;-43.570;172.580;2023-10-13T09:26:11;100376.88;;;16.93;45.08
68855;BME280;69984;-43.570;172.580;2023-10-13T09:28:38;100381.09;;;16.81;44.96
68855;BME280;69984;-43.570;172.580;2023-10-13T09:31:05;100378.63;;;16.79;44.60
68855;BME280;69984;-43.570;172.580;2023-10-13T09:33:34;100380.91;;;16.89;44.26
68855;BME280;69984;-43.570;172.580;2023-10-13T09:36:02;100371.75;;;16.85;44.18
68855;BME280;69984;-43.570;172.580;2023-10-13T09:38:34;100364.84;;;16.90;43.71
68855;BME280;69984;-43.570;172.580;2023-10-13T09:41:07;100364.25;;;16.88;43.73
68855;BME280;69984;-43.570;172.580;2023-10-13T09:43:53;100371.56;;;16.93;43.66
68855;BME280;69984;-43.570;172.580;2023-10-13T09:46:27;100358.34;;;16.93;43.64
68855;BME280;69984;-43.570;172.580;2023-10-13T09:49:08;100353.25;;;16.91;43.37
68855;BME280;69984;-43.570;172.580;2023-10-13T09:51:41;100366.06;;;16.88;43.83
68855;BME280;69984;-43.570;172.580;2023-10-13T09:54:36;100367.03;;;16.80;43.63
68855;BME280;69984;-43.570;172.580;2023-10-13T09:57:12;100353.78;;;16.80;43.63
68855;BME280;69984;-43.570;172.580;2023-10-13T10:00:17;100379.19;;;16.75;44.20
68855;BME280;69984;-43.570;172.580;2023-10-13T10:03:05;100371.97;;;16.62;44.48
68855;BME280;69984;-43.570;172.580;2023-10-13T10:05:59;100380.19;;;16.67;44.61
68855;BME280;69984;-43.570;172.580;2023-10-13T10:08:46;100381.75;;;16.62;44.35
68855;BME280;69984;-43.570;172.580;2023-10-13T10:11:26;100382.75;;;16.61;44.23
68855;BME280;69984;-43.570;172.580;2023-10-13T10:14:10;100396.38;;;16.58;44.40
68855;BME280;69984;-43.570;172.580;2023-10-13T10:17:04;100398.41;;;16.56;44.52
68855;BME280;69984;-43.570;172.580;2023-10-13T10:22:30;100397.88;;;16.67;44.77
68855;BME280;69984;-43.570;172.580;2023-10-13T10:25:06;100384.78;;;16.37;45.93
68855;BME280;69984;-43.570;172.580;2023-10-13T10:27:34;100377.06;;;16.15;45.62
68855;BME280;69984;-43.570;172.580;2023-10-13T10:30:02;100360.59;;;16.40;44.37
68855;BME280;69984;-43.570;172.580;2023-10-13T10:32:38;100347.06;;;16.29;44.23
68855;BME280;69984;-43.570;172.580;2023-10-13T10:35:15;100352.47;;;16.42;43.78
68855;BME280;69984;-43.570;172.580;2023-10-13T10:37:46;100346.75;;;16.38;44.97
68855;BME280;69984;-43.570;172.580;2023-10-13T10:40:17;100353.47;;;16.41;44.44
68855;BME280;69984;-43.570;172.580;2023-10-13T10:43:13;100352.53;;;16.76;40.59
68855;BME280;69984;-43.570;172.580;2023-10-13T10:45:47;100339.00;;;17.33;39.19
68855;BME280;69984;-43.570;172.580;2023-10-13T10:48:18;100337.13;;;17.81;37.74
68855;BME280;69984;-43.570;172.580;2023-10-13T10:50:53;100339.78;;;17.88;38.98
68855;BME280;69984;-43.570;172.580;2023-10-13T10:53:23;100358.09;;;17.70;39.94
68855;BME280;69984;-43.570;172.580;2023-10-13T10:56:06;100360.56;;;17.78;39.56
68855;BME280;69984;-43.570;172.580;2023-10-13T10:58:56;100359.53;;;17.66;39.99
68855;BME280;69984;-43.570;172.580;2023-10-13T11:01:24;100372.91;;;17.51;41.19
68855;BME280;69984;-43.570;172.580;2023-10-13T11:04:06;100356.69;;;17.26;41.16
68855;BME280;69984;-43.570;172.580;2023-10-13T11:06:57;100360.94;;;17.21;41.43
68855;BME280;69984;-43.570;172.580;2023-10-13T11:09:32;100359.22;;;17.07;41.93
68855;BME280;69984;-43.570;172.580;2023-10-13T11:15:07;100334.50;;;16.93;41.45
68855;BME280;69984;-43.570;172.580;2023-10-13T11:17:52;100324.25;;;16.77;42.92
68855;BME280;69984;-43.570;172.580;2023-10-13T11:20:23;100322.38;;;16.71;42.21
68855;BME280;69984;-43.570;172.580;2023-10-13T11:22:59;100317.25;;;16.63;42.17
68855;BME280;69984;-43.570;172.580;2023-10-13T11:25:29;100320.75;;;16.70;42.66
68855;BME280;69984;-43.570;172.580;2023-10-13T11:28:21;100309.78;;;16.24;45.32
68855;BME280;69984;-43.570;172.580;2023-10-13T11:30:55;100329.75;;;16.05;45.19
68855;BME280;69984;-43.570;172.580;2023-10-13T11:33:27;100292.59;;;15.85;45.40
68855;BME280;69984;-43.570;172.580;2023-10-13T11:35:56;100298.69;;;15.65;47.81
68855;BME280;69984;-43.570;172.580;2023-10-13T11:38:25;100294.94;;;15.23;48.54
68855;BME280;69984;-43.570;172.580;2023-10-13T11:40:58;100279.00;;;15.17;48.23
68855;BME280;69984;-43.570;172.580;2023-10-13T11:43:44;100285.25;;;14.94;49.73
68855;BME280;69984;-43.570;172.580;2023-10-13T11:46:27;100263.88;;;15.25;45.61
68855;BME280;69984;-43.570;172.580;2023-10-13T11:49:08;100271.53;;;15.98;43.38
68855;BME280;69984;-43.570;172.580;2023-10-13T11:51:43;100275.06;;;16.33;42.71
68855;BME280;69984;-43.570;172.580;2023-10-13T11:54:17;100288.78;;;16.43;42.72
68855;BME280;69984;-43.570;172.580;2023-10-13T11:56:48;100281.13;;;16.27;43.89
68855;BME280;69984;-43.570;172.580;2023-10-13T11:59:16;100288.34;;;16.12;42.83
68855;BME280;69984;-43.570;172.580;2023-10-13T12:01:47;100293.75;;;16.25;43.68
68855;BME280;69984;-43.570;172.580;2023-10-13T12:04:34;100289.53;;;16.10;44.11
68855;BME280;69984;-43.570;172.580;2023-10-13T12:07:23;100288.34;;;15.91;44.51
68855;BME280;69984;-43.570;172.580;2023-10-13T12:10:06;100286.97;;;15.95;43.95
68855;BME280;69984;-43.570;172.580;2023-10-13T12:12:41;100269.78;;;15.63;44.92
68855;BME280;69984;-43.570;172.580;2023-10-13T12:15:14;100263.44;;;15.58;45.48
68855;BME280;69984;-43.570;172.580;2023-10-13T12:17:51;100266.47;;;15.55;45.67
68855;BME280;69984;-43.570;172.580;2023-10-13T12:20:19;100263.63;;;15.56;45.39
68855;BME280;69984;-43.570;172.580;2023-10-13T12:22:59;100255.16;;;15.46;46.19
68855;BME280;69984;-43.570;172.580;2023-10-13T12:25:39;100245.59;;;15.45;46.50
68855;BME280;69984;-43.570;172.580;2023-10-13T12:28:32;100238.03;;;15.21;46.12
68855;BME280;69984;-43.570;172.580;2023-10-13T12:31:04;100232.13;;;15.19;46.19
68855;BME280;69984;-43.570;172.580;2023-10-13T12:33:34;100222.31;;;15.48;44.68
68855;BME280;69984;-43.570;172.580;2023-10-13T12:36:06;100210.81;;;15.41;45.32
68855;BME280;69984;-43.570;172.580;2023-10-13T12:38:41;100210.47;;;15.23;45.81
68855;BME280;69984;-43.570;172.580;2023-10-13T12:41:14;100192.41;;;15.27;45.29
68855;BME280;69984;-43.570;172.580;2023-10-13T12:44:00;100197.44;;;15.22;45.14
68855;BME280;69984;-43.570;172.580;2023-10-13T12:46:45;100183.41;;;15.42;45.29
68855;BME280;69984;-43.570;172.580;2023-10-13T12:49:33;100175.94;;;15.46;45.02
68855;BME280;69984;-43.570;172.580;2023-10-13T12:52:12;100178.03;;;15.51;44.66
68855;BME280;69984;-43.570;172.580;2023-10-13T12:54:43;100172.28;;;15.47;45.09
68855;BME280;69984;-43.570;172.580;2023-10-13T12:57:33;100167.09;;;15.54;44.25
68855;BME280;69984;-43.570;172.580;2023-10-13T13:00:03;100162.00;;;15.52;44.35
68855;BME280;69984;-43.570;172.580;2023-10-13T13:02:43;100153.59;;;15.70;43.59
68855;BME280;69984;-43.570;172.580;2023-10-13T13:05:10;100149.53;;;15.67;43.37
68855;BME280;69984;-43.570;172.580;2023-10-13T13:07:40;100151.66;;;15.78;43.79
68855;BME280;69984;-43.570;172.580;2023-10-13T13:10:19;100145.25;;;15.66;43.67
68855;BME280;69984;-43.570;172.580;2023-10-13T13:13:02;100141.16;;;15.64;44.30
68855;BME280;69984;-43.570;172.580;2023-10-13T13:15:29;100128.34;;;15.61;44.97
68855;BME280;69984;-43.570;172.580;2023-10-13T13:17:56;100125.59;;;15.75;43.16
68855;BME280;69984;-43.570;172.580;2023-10-13T13:20:24;100110.31;;;15.71;42.75
68855;BME280;69984;-43.570;172.580;2023-10-13T13:22:55;100130.78;;;15.62;44.45
68855;BME280;69984;-43.570;172.580;2023-10-13T13:25:29;100107.72;;;15.28;46.14
68855;BME280;69984;-43.570;172.580;2023-10-13T13:27:59;100122.72;;;14.85;46.36
68855;BME280;69984;-43.570;172.580;2023-10-13T13:30:31;100106.50;;;14.88;47.38